Disclaimer

Please do not use the information listed here in-flight or in-navigation, as they are not provided to us by the airports but are provided by volunteers, so they might be outdated.

Search


Regions


Airport information page

No radio frequency information is available.

Airport informations:
Latitude: 01° 12' 43.44" S
Longitude: 078° 34' 28.69" W
Elevation: 8502 feet - 2591 meters
Operating hours: From sunrise to sunset (SR-SS)
Operating agency: Military-civil joint use airport
Timezone: UTC-5
Fuel: N/A

Runway information:
01/19 - 6316 x 82 feet< - >1925 x 25 meters

Recent METARs:
SEAM 211600Z 00000KT 9999 SCT033 SCT100 20/14 Q1029
SEAM 211700Z 08002KT 9999 SCT033 SCT100 21/15 Q1028
SEAM 211700Z 08002KT 9999 SCT033 SCT100 21/15 Q1028

Airport on the map: